createdAt,value
2016-10-23T00:00:04.163Z,95.69
2016-10-23T00:01:04.126Z,95.03
2016-10-23T00:02:04.084Z,94.93
2016-10-23T00:03:04.042Z,95.5
2016-10-23T00:04:03.996Z,95.69
2016-10-23T00:05:03.957Z,95.88
2016-10-23T00:06:03.919Z,95.59
2016-10-23T00:07:03.874Z,95.5
2016-10-23T00:08:03.837Z,95.5
2016-10-23T00:09:03.799Z,95.31
2016-10-23T00:10:03.753Z,95.5
2016-10-23T00:11:03.712Z,95.59
2016-10-23T00:12:03.366Z,95.5
2016-10-23T00:13:03.324Z,95.59
2016-10-23T00:14:03.588Z,95.59
2016-10-23T00:15:03.550Z,95.78
2016-10-23T00:16:03.503Z,95.4
2016-10-23T00:17:03.464Z,95.69
2016-10-23T00:18:03.420Z,95.69
2016-10-23T00:19:03.378Z,95.69
2016-10-23T00:20:03.339Z,94.98
2016-10-23T00:21:03.299Z,94.89
2016-10-23T00:22:02.955Z,94.89
2016-10-23T00:23:03.220Z,94.89
2016-10-23T00:24:02.871Z,94.98
2016-10-23T00:25:03.133Z,95.21
2016-10-23T00:26:03.091Z,95.07
2016-10-23T00:27:03.048Z,95.17
2016-10-23T00:28:03.009Z,94.89
2016-10-23T00:29:02.976Z,94.98
2016-10-23T00:30:02.927Z,95.07
2016-10-23T00:31:02.885Z,95.07
2016-10-23T00:32:02.845Z,95.07
2016-10-23T00:33:02.802Z,95.26
2016-10-23T00:34:02.763Z,94.98
2016-10-23T00:35:02.417Z,94.98
2016-10-23T00:36:02.679Z,94.89
2016-10-23T00:37:02.634Z,95.17
2016-10-23T00:38:02.592Z,94.89
2016-10-23T00:39:02.564Z,95.45
2016-10-23T00:40:02.511Z,94.98
2016-10-23T00:41:02.472Z,95.64
2016-10-23T00:42:02.430Z,95.45
2016-10-23T00:43:02.385Z,95.55
2016-10-23T00:44:02.344Z,95.64
2016-10-23T00:45:02.308Z,95.55
2016-10-23T00:46:01.964Z,95.26
2016-10-23T00:47:01.921Z,95.64
2016-10-23T00:48:01.885Z,95.64
2016-10-23T00:49:02.143Z,95.26
2016-10-23T00:50:02.105Z,96.12
2016-10-23T00:51:02.055Z,95.83
2016-10-23T00:52:02.017Z,96.21
2016-10-23T00:53:01.970Z,96.12
2016-10-23T00:54:01.932Z,95.97
2016-10-23T00:55:01.888Z,95.88
2016-10-23T00:56:01.851Z,96.02
2016-10-23T00:57:01.806Z,95.97
2016-10-23T00:58:01.766Z,96.02
2016-10-23T00:59:01.724Z,95.78
2016-10-23T01:00:01.684Z,96.16
2016-10-23T01:01:01.644Z,96.73
2016-10-23T01:02:01.603Z,96.45
2016-10-23T01:03:01.558Z,96.16
2016-10-23T01:04:01.516Z,96.45
2016-10-23T01:05:01.481Z,96.26
2016-10-23T01:06:01.129Z,96.54
2016-10-23T01:07:01.394Z,96.35
2016-10-23T01:08:01.356Z,96.54
2016-10-23T01:09:01.308Z,96.26
2016-10-23T01:10:01.268Z,96.45
2016-10-23T01:11:01.226Z,96.45
2016-10-23T01:12:00.886Z,96.35
2016-10-23T01:13:01.148Z,96.54
2016-10-23T01:14:01.101Z,97.02
2016-10-23T01:15:01.062Z,96.64
2016-10-23T01:16:01.020Z,96.73
2016-10-23T01:17:00.978Z,96.83
2016-10-23T01:18:00.943Z,97.11
2016-10-23T01:19:00.900Z,96.92
2016-10-23T01:20:00.558Z,97.02
2016-10-23T01:21:00.817Z,96.83
2016-10-23T01:22:00.772Z,96.92
2016-10-23T01:23:00.731Z,97.02
2016-10-23T01:24:00.394Z,96.83
2016-10-23T01:25:00.647Z,96.92
2016-10-23T01:26:00.610Z,96.83
2016-10-23T01:27:00.567Z,96.83
2016-10-23T01:28:00.533Z,96.73
2016-10-23T01:29:00.486Z,96.45
2016-10-23T01:30:00.444Z,96.97
2016-10-23T01:31:00.405Z,96.78
2016-10-23T01:32:00.363Z,96.78
2016-10-23T01:33:00.324Z,96.97
2016-10-23T01:34:00.281Z,96.88
2016-10-23T01:35:00.240Z,96.69
2016-10-23T01:36:00.198Z,96.59
2016-10-23T01:37:00.157Z,96.69
2016-10-23T01:38:00.115Z,96.59
2016-10-23T01:38:59.776Z,96.78
2016-10-23T01:40:00.030Z,97.16
2016-10-23T01:40:59.989Z,96.97
2016-10-23T01:41:59.987Z,96.97
2016-10-23T01:42:59.914Z,96.4
2016-10-23T01:43:59.868Z,96.4
2016-10-23T01:44:59.826Z,96.69
2016-10-23T01:45:59.789Z,96.4
2016-10-23T01:46:59.745Z,97.16
2016-10-23T01:47:59.703Z,96.97
2016-10-23T01:48:59.669Z,96.97
2016-10-23T01:49:59.621Z,96.59
2016-10-23T01:50:59.578Z,96.69
2016-10-23T01:51:59.538Z,96.59
2016-10-23T01:52:59.498Z,96.59
2016-10-23T01:53:59.458Z,96.97
2016-10-23T01:54:59.421Z,97.16
2016-10-23T01:55:59.378Z,96.4
2016-10-23T01:56:59.333Z,96.78
2016-10-23T01:57:58.992Z,96.5
2016-10-23T01:58:59.252Z,96.59
2016-10-23T01:59:59.218Z,96.4
2016-10-23T02:00:59.174Z,96.5
2016-10-23T02:01:59.129Z,96.21
2016-10-23T02:02:59.089Z,96.5
2016-10-23T02:03:58.743Z,96.12
2016-10-23T02:04:59.012Z,96.5
2016-10-23T02:05:58.966Z,96.4
2016-10-23T02:06:58.924Z,96.31
2016-10-23T02:07:58.884Z,96.21
2016-10-23T02:08:58.844Z,96.78
2016-10-23T02:09:58.806Z,96.69
2016-10-23T02:10:58.759Z,96.59
2016-10-23T02:11:58.420Z,96.59
2016-10-23T02:12:58.682Z,96.59
2016-10-23T02:13:58.640Z,96.21
2016-10-23T02:14:58.295Z,96.31
2016-10-23T02:15:58.559Z,96.31
2016-10-23T02:16:58.530Z,96.4
2016-10-23T02:17:58.473Z,96.21
2016-10-23T02:18:58.134Z,96.31
2016-10-23T02:19:58.393Z,96.69
2016-10-23T02:20:58.352Z,96.4
2016-10-23T02:21:58.311Z,96.02
2016-10-23T02:22:58.276Z,96.02
2016-10-23T02:23:58.230Z,96.21
2016-10-23T02:24:58.185Z,96.02
2016-10-23T02:25:57.846Z,96.02
2016-10-23T02:26:58.109Z,95.88
2016-10-23T02:27:57.771Z,95.88
2016-10-23T02:28:58.029Z,95.93
2016-10-23T02:29:57.987Z,96.12
2016-10-23T02:30:57.945Z,95.98
2016-10-23T02:31:57.902Z,96.17
2016-10-23T02:32:57.559Z,96.12
2016-10-23T02:33:57.820Z,95.98
2016-10-23T02:34:57.480Z,95.79
2016-10-23T02:35:57.741Z,95.6
2016-10-23T02:36:57.699Z,95.74
2016-10-23T02:37:57.665Z,95.74
2016-10-23T02:38:57.618Z,95.45
2016-10-23T02:39:57.574Z,95.55
2016-10-23T02:40:57.536Z,95.74
2016-10-23T02:41:57.498Z,94.98
2016-10-23T02:42:57.153Z,95.36
2016-10-23T02:43:57.412Z,95.36
2016-10-23T02:44:57.373Z,95.74
2016-10-23T02:45:57.336Z,95.74
2016-10-23T02:46:57.292Z,95.83
2016-10-23T02:47:57.251Z,95.55
2016-10-23T02:48:56.905Z,95.55
2016-10-23T02:49:57.168Z,95.36
2016-10-23T02:50:57.129Z,95.74
2016-10-23T02:51:57.090Z,95.93
2016-10-23T02:52:57.044Z,95.55
2016-10-23T02:53:57.006Z,95.74
2016-10-23T02:54:56.659Z,95.74
2016-10-23T02:55:56.923Z,94.98
2016-10-23T02:56:56.886Z,95.74
2016-10-23T02:57:56.841Z,95.74
2016-10-23T02:58:56.498Z,95.74
2016-10-23T02:59:56.760Z,95.93
2016-10-23T03:00:56.729Z,95.74
2016-10-23T03:01:56.685Z,95.45
2016-10-23T03:02:56.640Z,95.74
2016-10-23T03:03:56.595Z,95.74
2016-10-23T03:04:56.557Z,94.98
2016-10-23T03:05:56.513Z,95.26
2016-10-23T03:06:56.477Z,95.07
2016-10-23T03:07:56.438Z,95.26
2016-10-23T03:08:56.411Z,95.36
2016-10-23T03:09:56.351Z,95.07
2016-10-23T03:10:56.311Z,95.17
2016-10-23T03:11:55.968Z,94.89
2016-10-23T03:12:56.227Z,95.17
2016-10-23T03:13:55.885Z,95.17
2016-10-23T03:14:55.848Z,95.17
2016-10-23T03:15:56.105Z,95.45
2016-10-23T03:16:56.068Z,94.98
2016-10-23T03:17:56.027Z,95.36
2016-10-23T03:18:55.983Z,95.36
2016-10-23T03:19:55.983Z,95.36
2016-10-23T03:20:55.904Z,94.89
2016-10-23T03:21:55.859Z,94.7
2016-10-23T03:22:55.816Z,94.79
2016-10-23T03:23:55.777Z,94.79
2016-10-23T03:24:55.736Z,94.7
2016-10-23T03:25:55.695Z,94.7
2016-10-23T03:26:55.656Z,94.79
2016-10-23T03:27:55.611Z,94.98
2016-10-23T03:28:55.574Z,95.07
2016-10-23T03:29:55.531Z,94.7
2016-10-23T03:30:55.488Z,94.89
2016-10-23T03:31:55.449Z,94.89
2016-10-23T03:32:55.409Z,94.6
2016-10-23T03:33:55.368Z,94.6
2016-10-23T03:34:55.325Z,94.32
2016-10-23T03:35:55.287Z,94.6
2016-10-23T03:36:55.249Z,94.32
2016-10-23T03:37:55.202Z,94.42
2016-10-23T03:38:55.162Z,94.46
2016-10-23T03:39:55.124Z,94.6
2016-10-23T03:40:55.082Z,94.32
2016-10-23T03:41:55.039Z,94.42
2016-10-23T03:42:55.000Z,94.6
2016-10-23T03:43:54.961Z,94.46
2016-10-23T03:44:54.919Z,94.18
2016-10-23T03:45:54.876Z,94.56
2016-10-23T03:46:54.533Z,94.56
2016-10-23T03:47:54.795Z,94.46
2016-10-23T03:48:54.757Z,94.27
2016-10-23T03:49:54.718Z,94.65
2016-10-23T03:50:54.675Z,94.46
2016-10-23T03:51:54.333Z,94.46
2016-10-23T03:52:54.590Z,94.46
2016-10-23T03:53:54.251Z,94.46
2016-10-23T03:54:54.512Z,94.84
2016-10-23T03:55:54.169Z,94.65
2016-10-23T03:56:54.432Z,94.84
2016-10-23T03:57:54.390Z,94.46
2016-10-23T03:58:54.346Z,94.65
2016-10-23T03:59:54.307Z,94.37
2016-10-23T04:00:54.263Z,94.37
2016-10-23T04:01:54.224Z,94.27
2016-10-23T04:02:54.185Z,94.18
2016-10-23T04:03:54.145Z,93.99
2016-10-23T04:04:54.104Z,94.18
2016-10-23T04:05:54.062Z,94.27
2016-10-23T04:06:54.020Z,94.27
2016-10-23T04:07:53.676Z,93.99
2016-10-23T04:08:53.939Z,93.89
2016-10-23T04:09:53.596Z,94.08
2016-10-23T04:10:53.859Z,94.27
2016-10-23T04:11:53.822Z,93.51
2016-10-23T04:12:53.476Z,93.8
2016-10-23T04:13:53.735Z,92.94
2016-10-23T04:14:53.698Z,93.42
2016-10-23T04:15:53.656Z,93.7
2016-10-23T04:16:53.615Z,93.13
2016-10-23T04:17:53.274Z,93.13
2016-10-23T04:18:53.533Z,93.32
2016-10-23T04:19:53.492Z,92.76
2016-10-23T04:20:53.452Z,93.04
2016-10-23T04:21:53.414Z,92.85
2016-10-23T04:22:53.370Z,92.85
2016-10-23T04:23:53.331Z,92.94
2016-10-23T04:24:53.288Z,93.04
2016-10-23T04:25:53.249Z,93.04
2016-10-23T04:26:52.908Z,92.85
2016-10-23T04:27:52.867Z,92.94
2016-10-23T04:28:53.127Z,93.04
2016-10-23T04:29:53.085Z,93.04
2016-10-23T04:30:52.746Z,93.04
2016-10-23T04:31:53.007Z,92.85
2016-10-23T04:32:52.662Z,92.94
2016-10-23T04:33:52.925Z,92.66
2016-10-23T04:34:52.882Z,92.76
2016-10-23T04:35:52.842Z,92.66
2016-10-23T04:36:52.802Z,92.28
2016-10-23T04:37:52.764Z,92.76
2016-10-23T04:38:52.720Z,92.57
2016-10-23T04:39:52.680Z,92.94
2016-10-23T04:40:52.640Z,92.66
2016-10-23T04:41:52.602Z,92.94
2016-10-23T04:42:52.557Z,92.94
2016-10-23T04:43:52.517Z,92.47
2016-10-23T04:44:52.473Z,92.85
2016-10-23T04:45:52.131Z,92.66
2016-10-23T04:46:52.395Z,92.38
2016-10-23T04:47:52.353Z,92.85
2016-10-23T04:48:52.313Z,92.66
2016-10-23T04:49:52.275Z,92.57
2016-10-23T04:50:52.232Z,92.38
2016-10-23T04:51:52.201Z,92.94
2016-10-23T04:52:52.149Z,92.85
2016-10-23T04:53:51.808Z,92.94
2016-10-23T04:54:52.072Z,92.85
2016-10-23T04:55:52.028Z,92.76
2016-10-23T04:56:51.986Z,93.13
2016-10-23T04:57:51.949Z,93.04
2016-10-23T04:58:51.908Z,93.13
2016-10-23T04:59:51.873Z,93.23
2016-10-23T05:00:51.828Z,93.37
2016-10-23T05:01:51.783Z,93.13
2016-10-23T05:02:51.749Z,93.37
2016-10-23T05:03:51.709Z,92.8
2016-10-23T05:04:51.703Z,92.9
2016-10-23T05:05:51.624Z,92.76
2016-10-23T05:06:51.583Z,92.57
2016-10-23T05:07:51.545Z,92.57
2016-10-23T05:08:51.505Z,92.61
2016-10-23T05:09:51.463Z,93.08
2016-10-23T05:10:51.121Z,92.94
2016-10-23T05:11:51.379Z,92.99
2016-10-23T05:12:51.342Z,92.94
2016-10-23T05:13:51.302Z,92.85
2016-10-23T05:14:51.258Z,93.04
2016-10-23T05:15:51.221Z,93.65
2016-10-23T05:16:50.876Z,93.56
2016-10-23T05:17:51.140Z,93.65
2016-10-23T05:18:51.095Z,93.51
2016-10-23T05:19:51.061Z,93.23
2016-10-23T05:20:51.019Z,93.65
2016-10-23T05:21:50.974Z,93.13
2016-10-23T05:22:50.632Z,93.37
2016-10-23T05:23:50.895Z,92.57
2016-10-23T05:24:50.857Z,92.94
2016-10-23T05:25:50.812Z,92.94
2016-10-23T05:26:50.775Z,92.9
2016-10-23T05:27:50.429Z,92.85
2016-10-23T05:28:50.692Z,92.94
2016-10-23T05:29:50.657Z,92.99
2016-10-23T05:30:50.612Z,92.47
2016-10-23T05:31:50.267Z,92.85
2016-10-23T05:32:50.535Z,93.04
2016-10-23T05:33:50.493Z,93.04
2016-10-23T05:34:50.452Z,92.66
2016-10-23T05:35:50.412Z,93.27
2016-10-23T05:36:50.410Z,93.27
2016-10-23T05:37:50.330Z,93.61
2016-10-23T05:38:50.287Z,93.61
2016-10-23T05:39:49.941Z,93.27
2016-10-23T05:40:50.208Z,93.42
2016-10-23T05:41:50.168Z,93.37
2016-10-23T05:42:50.124Z,93.46
2016-10-23T05:43:50.085Z,93.56
2016-10-23T05:44:50.042Z,93.56
2016-10-23T05:45:49.700Z,93.65
2016-10-23T05:46:49.966Z,93.56
2016-10-23T05:47:49.927Z,93.65
2016-10-23T05:48:49.883Z,93.56
2016-10-23T05:49:49.843Z,93.37
2016-10-23T05:50:49.803Z,93.56
2016-10-23T05:51:49.461Z,93.56
2016-10-23T05:52:49.418Z,93.46
2016-10-23T05:53:49.678Z,93.27
2016-10-23T05:54:49.641Z,93.56
2016-10-23T05:55:49.604Z,93.75
2016-10-23T05:56:49.577Z,93.27
2016-10-23T05:57:49.520Z,93.08
2016-10-23T05:58:49.177Z,93.37
2016-10-23T05:59:49.439Z,93.08
2016-10-23T06:00:49.097Z,92.99
2016-10-23T06:01:49.360Z,92.99
2016-10-23T06:02:49.317Z,92.71
2016-10-23T06:03:49.275Z,93.18
2016-10-23T06:04:48.934Z,92.61
2016-10-23T06:05:49.196Z,92.33
2016-10-23T06:06:49.156Z,92.71
2016-10-23T06:07:48.815Z,92.9
2016-10-23T06:08:49.078Z,92.71
2016-10-23T06:09:49.034Z,92.33
2016-10-23T06:10:48.996Z,92.71
2016-10-23T06:11:48.958Z,92.52
2016-10-23T06:12:48.918Z,92.71
2016-10-23T06:13:48.878Z,92.61
2016-10-23T06:14:48.836Z,92.71
2016-10-23T06:15:48.796Z,92.42
2016-10-23T06:16:48.757Z,92.8
2016-10-23T06:17:48.712Z,92.9
2016-10-23T06:18:48.671Z,92.61
2016-10-23T06:19:48.631Z,92.52
2016-10-23T06:20:48.593Z,92.61
2016-10-23T06:21:48.555Z,92.42
2016-10-23T06:22:48.207Z,92.71
2016-10-23T06:23:48.171Z,92.33
2016-10-23T06:24:48.430Z,92.33
2016-10-23T06:25:48.392Z,92.61
2016-10-23T06:26:48.086Z,92.8
2016-10-23T06:27:48.008Z,92.99
2016-10-23T06:28:48.268Z,92.52
2016-10-23T06:29:48.230Z,92.61
2016-10-23T06:30:47.885Z,92.99
2016-10-23T06:31:48.146Z,92.9
2016-10-23T06:32:47.806Z,92.9
2016-10-23T06:33:48.069Z,92.42
2016-10-23T06:34:48.031Z,93.08
2016-10-23T06:35:47.987Z,92.99
2016-10-23T06:36:47.952Z,92.71
2016-10-23T06:37:47.905Z,92.9
2016-10-23T06:38:47.866Z,92.71
2016-10-23T06:39:47.827Z,92.8
2016-10-23T06:40:47.785Z,92.9
2016-10-23T06:41:47.747Z,92.71
2016-10-23T06:42:47.707Z,92.57
2016-10-23T06:43:47.363Z,92.85
2016-10-23T06:44:47.325Z,91.99
2016-10-23T06:45:47.588Z,92.18
2016-10-23T06:46:47.546Z,91.71
2016-10-23T06:47:47.507Z,91.71
2016-10-23T06:48:47.466Z,91.71
2016-10-23T06:49:47.430Z,91.33
2016-10-23T06:50:47.386Z,91.66
2016-10-23T06:51:47.344Z,90.81
2016-10-23T06:52:47.306Z,90.09
2016-10-23T06:53:47.267Z,87.9
2016-10-23T06:54:47.237Z,85.47
2016-10-23T06:55:46.887Z,83.95
2016-10-23T06:56:47.148Z,83.67
2016-10-23T06:57:46.808Z,83.19
2016-10-23T06:58:46.772Z,83.39
2016-10-23T06:59:47.031Z,82.53
2016-10-23T07:00:46.995Z,82.62
2016-10-23T07:01:46.668Z,82.71
2016-10-23T07:02:46.916Z,82.39
2016-10-23T07:03:46.877Z,83
2016-10-23T07:04:46.836Z,82.05
2016-10-23T07:05:46.798Z,82.53
2016-10-23T07:06:46.760Z,81.86
2016-10-23T07:07:46.723Z,81.77
2016-10-23T07:08:46.384Z,81.2
2016-10-23T07:09:46.647Z,80.91
2016-10-23T07:10:46.608Z,81.24
2016-10-23T07:11:46.268Z,80.66
2016-10-23T07:12:46.532Z,80.1
2016-10-23T07:13:46.496Z,79.72
2016-10-23T07:14:46.153Z,79.52
2016-10-23T07:15:46.117Z,79.05
2016-10-23T07:16:46.381Z,79.05
2016-10-23T07:17:46.350Z,77
2016-10-23T07:18:46.304Z,74.02
2016-10-23T07:19:46.280Z,71.2
2016-10-23T07:20:46.231Z,68.32
2016-10-23T07:21:45.893Z,67.21
2016-10-23T07:22:46.161Z,66.72
2016-10-23T07:23:46.120Z,66.66
2016-10-23T07:24:46.091Z,66.06
2016-10-23T07:25:46.048Z,64.37
2016-10-23T07:26:45.710Z,62.14
2016-10-23T07:27:45.982Z,59.88
2016-10-23T07:28:45.940Z,57.92
2016-10-23T07:29:45.604Z,57.16
2016-10-23T07:30:45.874Z,56.99
2016-10-23T07:31:45.842Z,57.64
2016-10-23T07:32:45.810Z,58.66
2016-10-23T07:33:45.466Z,59.11
2016-10-23T07:34:45.799Z,58.15
2016-10-23T07:35:45.705Z,56.91
2016-10-23T07:36:45.668Z,55.15
2016-10-23T07:37:45.636Z,53.64
2016-10-23T07:38:45.604Z,52.04
2016-10-23T07:39:45.567Z,51.68
2016-10-23T07:40:45.231Z,52.83
2016-10-23T07:41:45.507Z,54.63
2016-10-23T07:42:45.468Z,55.63
2016-10-23T07:43:45.435Z,55.79
2016-10-23T07:44:45.409Z,57.48
2016-10-23T07:45:45.069Z,56.88
2016-10-23T07:46:45.343Z,57.71
2016-10-23T07:47:45.000Z,58.45
2016-10-23T07:48:45.269Z,58.23
2016-10-23T07:49:45.238Z,57.87
2016-10-23T07:50:45.202Z,57.5
2016-10-23T07:51:45.178Z,57.78
2016-10-23T07:52:45.136Z,57.68
2016-10-23T07:53:45.110Z,58.14
2016-10-23T07:54:45.067Z,58.42
2016-10-23T07:55:45.040Z,58.33
2016-10-23T07:56:45.004Z,58.9
2016-10-23T07:57:44.971Z,59.92
2016-10-23T07:58:44.936Z,60.58
2016-10-23T07:59:44.597Z,61.73
2016-10-23T08:00:44.563Z,62.75
2016-10-23T08:01:44.832Z,63.99
2016-10-23T08:02:44.495Z,64.43
2016-10-23T08:03:44.761Z,65.77
2016-10-23T08:04:44.436Z,66.11
2016-10-23T08:05:44.689Z,66.5
2016-10-23T08:06:44.357Z,67.26
2016-10-23T08:07:44.625Z,67.64
2016-10-23T08:08:44.284Z,67.93
2016-10-23T08:09:44.552Z,68.59
2016-10-23T08:10:44.217Z,69.17
2016-10-23T08:11:44.484Z,69.26
2016-10-23T08:12:44.453Z,69.64
2016-10-23T08:13:44.409Z,69.35
2016-10-23T08:14:44.379Z,69.74
2016-10-23T08:15:44.040Z,69.26
2016-10-23T08:16:44.305Z,68.78
2016-10-23T08:17:44.270Z,68.63
2016-10-23T08:18:44.234Z,68.24
2016-10-23T08:19:44.198Z,67.77
2016-10-23T08:20:44.172Z,67.77
2016-10-23T08:21:44.130Z,67.99
2016-10-23T08:22:44.097Z,67.99
2016-10-23T08:23:44.060Z,67.9
2016-10-23T08:24:44.035Z,67.14
2016-10-23T08:25:43.684Z,67.42
2016-10-23T08:26:43.954Z,67.14
2016-10-23T08:27:43.615Z,67.14
2016-10-23T08:28:43.883Z,67.23
2016-10-23T08:29:43.847Z,67.23
2016-10-23T08:30:43.812Z,67.33
2016-10-23T08:31:43.779Z,67.04
2016-10-23T08:32:43.742Z,67.8
2016-10-23T08:33:43.709Z,68.09
2016-10-23T08:34:43.373Z,67.99
2016-10-23T08:35:43.638Z,67.8
2016-10-23T08:36:43.603Z,68.18
2016-10-23T08:37:43.268Z,68.18
2016-10-23T08:38:43.531Z,68.47
2016-10-23T08:39:43.500Z,68.28
2016-10-23T08:40:43.158Z,67.8
2016-10-23T08:41:43.430Z,67.42
2016-10-23T08:42:43.395Z,67.17
2016-10-23T08:43:43.359Z,67.17
2016-10-23T08:44:43.319Z,67.52
2016-10-23T08:45:43.287Z,67.14
2016-10-23T08:46:43.251Z,67.04
2016-10-23T08:47:42.918Z,67.14
2016-10-23T08:48:43.181Z,66.94
2016-10-23T08:49:43.149Z,66.41
2016-10-23T08:50:42.812Z,65.74
2016-10-23T08:51:43.077Z,64.4
2016-10-23T08:52:43.062Z,63.29
2016-10-23T08:53:43.014Z,63.29
2016-10-23T08:54:42.975Z,63.03
2016-10-23T08:55:42.948Z,60.77
2016-10-23T08:56:42.909Z,59.11
2016-10-23T08:57:42.871Z,57.32
2016-10-23T08:58:42.536Z,56.1
2016-10-23T08:59:42.803Z,55.34
2016-10-23T09:00:42.770Z,54.96
2016-10-23T09:01:42.738Z,56.2
2016-10-23T09:02:42.711Z,55.02
2016-10-23T09:03:42.672Z,53.64
2016-10-23T09:04:42.337Z,50.99
2016-10-23T09:05:42.605Z,49.88
2016-10-23T09:06:42.577Z,49.6
2016-10-23T09:07:42.541Z,50.34
2016-10-23T09:08:42.207Z,51.01
2016-10-23T09:09:42.175Z,51.95
2016-10-23T09:10:42.450Z,52.78
2016-10-23T09:11:42.428Z,53.91
2016-10-23T09:12:42.082Z,53.97
2016-10-23T09:13:42.351Z,54.52
2016-10-23T09:14:42.317Z,55.38
2016-10-23T09:15:42.285Z,55.07
2016-10-23T09:16:42.254Z,55.64
2016-10-23T09:17:42.220Z,56.47
2016-10-23T09:18:42.189Z,57.62
2016-10-23T09:19:41.854Z,58.64
2016-10-23T09:20:42.146Z,59.12
2016-10-23T09:21:42.091Z,59.95
2016-10-23T09:22:41.756Z,60.42
2016-10-23T09:23:42.022Z,60.42
2016-10-23T09:24:41.689Z,60.52
2016-10-23T09:25:41.654Z,61.57
2016-10-23T09:26:41.925Z,61.95
2016-10-23T09:27:41.894Z,62.43
2016-10-23T09:28:41.560Z,63.2
2016-10-23T09:29:41.519Z,62.81
2016-10-23T09:30:41.787Z,63.1
2016-10-23T09:31:41.754Z,62.71
2016-10-23T09:32:41.420Z,62.34
2016-10-23T09:33:41.688Z,62.15
2016-10-23T09:34:41.348Z,61.95
2016-10-23T09:35:41.617Z,61.41
2016-10-23T09:36:41.288Z,61.51
2016-10-23T09:37:41.551Z,61.38
2016-10-23T09:38:41.520Z,61.6
2016-10-23T09:39:41.485Z,61.22
2016-10-23T09:40:41.454Z,60.64
2016-10-23T09:41:41.419Z,60.49
2016-10-23T09:42:41.380Z,59.91
2016-10-23T09:43:41.347Z,59.27
2016-10-23T09:44:41.311Z,58.8
2016-10-23T09:45:41.280Z,57.55
2016-10-23T09:46:41.247Z,55.76
2016-10-23T09:47:41.212Z,54.55
2016-10-23T09:48:41.179Z,53.62
2016-10-23T09:49:41.148Z,53.52
2016-10-23T09:50:41.115Z,53.33
2016-10-23T09:51:41.089Z,53.88
2016-10-23T09:52:41.050Z,54.64
2016-10-23T09:53:41.014Z,55.38
2016-10-23T09:54:40.685Z,55.76
2016-10-23T09:55:40.950Z,56.88
2016-10-23T09:56:40.920Z,57.36
2016-10-23T09:57:40.886Z,57.84
2016-10-23T09:58:40.552Z,57.65
2016-10-23T09:59:40.821Z,56.6
2016-10-23T10:00:40.787Z,55.1
2016-10-23T10:01:40.760Z,54.36
2016-10-23T10:02:40.429Z,52.47
2016-10-23T10:03:40.691Z,50.99
2016-10-23T10:04:40.658Z,49.12
2016-10-23T10:05:40.630Z,48.38
2016-10-23T10:06:40.291Z,47.61
2016-10-23T10:07:40.262Z,47.49
2016-10-23T10:08:40.531Z,47.58
2016-10-23T10:09:40.199Z,48.33
2016-10-23T10:10:40.469Z,47.27
2016-10-23T10:11:40.437Z,45.86
2016-10-23T10:12:40.408Z,45.52
2016-10-23T10:13:40.373Z,45.81
2016-10-23T10:14:40.346Z,46
2016-10-23T10:15:40.324Z,47.22
2016-10-23T10:16:40.288Z,47.3
2016-10-23T10:17:40.252Z,48.35
2016-10-23T10:18:40.221Z,48.52
2016-10-23T10:19:40.190Z,48.43
2016-10-23T10:20:40.159Z,48.61
2016-10-23T10:21:40.140Z,48.71
2016-10-23T10:22:40.101Z,49
2016-10-23T10:23:40.070Z,48.71
2016-10-23T10:24:39.734Z,49.19
2016-10-23T10:25:40.008Z,48.61
2016-10-23T10:26:39.976Z,49
2016-10-23T10:27:39.943Z,49.67
2016-10-23T10:28:39.911Z,49.93
2016-10-23T10:29:39.885Z,50.41
2016-10-23T10:30:39.852Z,50.48
2016-10-23T10:31:39.820Z,51.54
2016-10-23T10:32:39.788Z,52.5
2016-10-23T10:33:39.759Z,52.95
2016-10-23T10:34:39.426Z,53.91
2016-10-23T10:35:39.393Z,54.55
2016-10-23T10:36:39.663Z,54.74
2016-10-23T10:37:39.329Z,55.19
2016-10-23T10:38:39.633Z,55.57
2016-10-23T10:39:39.567Z,56.15
2016-10-23T10:40:39.538Z,57.26
2016-10-23T10:41:39.528Z,58.22
2016-10-23T10:42:39.474Z,58.51
2016-10-23T10:43:39.434Z,59.44
2016-10-23T10:44:39.107Z,59.63
2016-10-23T10:45:39.371Z,60.2
2016-10-23T10:46:39.039Z,60.2
2016-10-23T10:47:39.008Z,60.58
2016-10-23T10:48:39.274Z,60.68
2016-10-23T10:49:39.243Z,60.64
2016-10-23T10:50:39.211Z,60.74
2016-10-23T10:51:39.184Z,61.41
2016-10-23T10:52:39.142Z,61.79
2016-10-23T10:53:39.108Z,62.46
2016-10-23T10:54:39.076Z,62.08
2016-10-23T10:55:39.040Z,62.43
2016-10-23T10:56:39.011Z,63.1
2016-10-23T10:57:38.970Z,63
2016-10-23T10:58:38.938Z,63.39
2016-10-23T10:59:38.905Z,63.48
2016-10-23T11:00:38.873Z,63.57
2016-10-23T11:01:38.839Z,63.86
2016-10-23T11:02:38.807Z,63.96
2016-10-23T11:03:38.471Z,64.05
2016-10-23T11:04:38.733Z,64.62
2016-10-23T11:05:38.701Z,65.07
2016-10-23T11:06:38.666Z,65.45
2016-10-23T11:07:38.631Z,65.36
2016-10-23T11:08:38.293Z,65.64
2016-10-23T11:09:38.257Z,65.83
2016-10-23T11:10:38.525Z,66.22
2016-10-23T11:11:38.501Z,66.41
2016-10-23T11:12:38.461Z,66.98
2016-10-23T11:13:38.424Z,66.69
2016-10-23T11:14:38.390Z,66.85
2016-10-23T11:15:38.350Z,66.66
2016-10-23T11:16:38.318Z,67.52
2016-10-23T11:17:38.285Z,67.23
2016-10-23T11:18:38.244Z,67.33
2016-10-23T11:19:38.214Z,67.55
2016-10-23T11:20:38.177Z,67.8
2016-10-23T11:21:38.148Z,67.9
2016-10-23T11:22:38.107Z,67.8
2016-10-23T11:23:38.071Z,68.18
2016-10-23T11:24:38.040Z,68.38
2016-10-23T11:25:38.006Z,68.38
2016-10-23T11:26:37.968Z,68.47
2016-10-23T11:27:37.943Z,68.6
2016-10-23T11:28:37.894Z,68.51
2016-10-23T11:29:37.556Z,68.51
2016-10-23T11:30:37.828Z,68.6
2016-10-23T11:31:37.794Z,68.51
2016-10-23T11:32:37.762Z,68.98
2016-10-23T11:33:37.724Z,68.98
2016-10-23T11:34:37.690Z,68.88
2016-10-23T11:35:37.649Z,68.98
2016-10-23T11:36:37.613Z,69.17
2016-10-23T11:37:37.581Z,69.17
2016-10-23T11:38:37.544Z,68.98
2016-10-23T11:39:37.515Z,69.65
2016-10-23T11:40:37.477Z,69.84
2016-10-23T11:41:37.437Z,69.84
2016-10-23T11:42:37.403Z,69.74
2016-10-23T11:43:37.370Z,70.22
2016-10-23T11:44:37.333Z,70.32
2016-10-23T11:45:37.309Z,70.09
2016-10-23T11:46:37.264Z,70.38
2016-10-23T11:47:37.228Z,70.57
2016-10-23T11:48:37.190Z,70.57
2016-10-23T11:49:36.853Z,70.86
2016-10-23T11:50:37.122Z,70.95
2016-10-23T11:51:37.087Z,71.04
2016-10-23T11:52:37.048Z,71.43
2016-10-23T11:53:37.018Z,71.43
2016-10-23T11:54:36.678Z,71.23
2016-10-23T11:55:36.947Z,71.81
2016-10-23T11:56:36.910Z,71.48
2016-10-23T11:57:36.877Z,72.06
2016-10-23T11:58:36.844Z,71.96
2016-10-23T11:59:36.811Z,72.25
2016-10-23T12:00:36.768Z,72.72
2016-10-23T12:01:36.730Z,72.53
2016-10-23T12:02:36.706Z,72.72
2016-10-23T12:03:36.359Z,73.21
2016-10-23T12:04:36.623Z,73.01
2016-10-23T12:05:36.295Z,73.21
2016-10-23T12:06:36.551Z,73.49
2016-10-23T12:07:36.520Z,73.96
2016-10-23T12:08:36.484Z,73.87
2016-10-23T12:09:36.444Z,73.74
2016-10-23T12:10:36.409Z,73.65
2016-10-23T12:11:36.072Z,73.55
2016-10-23T12:12:36.338Z,73.74
2016-10-23T12:13:36.000Z,73.83
2016-10-23T12:14:36.301Z,73.74
2016-10-23T12:15:36.226Z,73.74
2016-10-23T12:16:36.192Z,73.77
2016-10-23T12:17:35.854Z,73.68
2016-10-23T12:18:36.120Z,73.77
2016-10-23T12:19:35.783Z,73.77
2016-10-23T12:20:36.047Z,73.77
2016-10-23T12:21:36.011Z,74.35
2016-10-23T12:22:35.705Z,74.44
2016-10-23T12:23:35.940Z,74.25
2016-10-23T12:24:35.900Z,74.35
2016-10-23T12:25:35.912Z,74.06
2016-10-23T12:26:35.835Z,74.25
2016-10-23T12:27:35.798Z,74.16
2016-10-23T12:28:35.757Z,74.25
2016-10-23T12:29:35.722Z,74.06
2016-10-23T12:30:35.689Z,74.38
2016-10-23T12:31:35.655Z,74.29
2016-10-23T12:32:35.314Z,74.29
2016-10-23T12:33:35.278Z,73.81
2016-10-23T12:34:35.545Z,73.52
2016-10-23T12:35:35.507Z,73.52
2016-10-23T12:36:35.473Z,73.66
2016-10-23T12:37:35.437Z,73.47
2016-10-23T12:38:35.402Z,73.37
2016-10-23T12:39:35.065Z,73.56
2016-10-23T12:40:35.032Z,73.47
2016-10-23T12:41:35.329Z,73.56
2016-10-23T12:42:35.259Z,73.47
2016-10-23T12:43:35.246Z,73.37
2016-10-23T12:44:35.195Z,73.37
2016-10-23T12:45:35.153Z,73.75
2016-10-23T12:46:35.124Z,73.47
2016-10-23T12:47:34.780Z,73.08
2016-10-23T12:48:35.047Z,72.61
2016-10-23T12:49:35.012Z,72.93
2016-10-23T12:50:35.302Z,72.36
2016-10-23T12:51:34.641Z,72.36
2016-10-23T12:52:34.911Z,72.26
2016-10-23T12:53:34.573Z,71.69
2016-10-23T12:54:34.835Z,71.5